YMMLYLHI

Guest
Details From YMML - Melbourne Intl
To YLHI - Lord Howe Island
Flight Number -
Tags decoded
Created
Modified
Stats Distance 793 nm / 1,469 km
Max Altitude 0 ft / 0 m
Waypoints 2
Social Downloads 0
Likes 0
Share VATSIM

Download

Looking for another format? Having issues loading an existing format? Contact us
Advertisement - Login to hide

Notes

Requested: YMML YLHI

Route

YMML YLHI

ID Type Via Altitude Latitude Longitude Leg Dist Tot Dist Heading (true) Name
O YMML APT - 0 ft / 0 m -37.66530˚ 144.83667˚ - 0 nm - Melbourne Intl
O YLHI APT - 0 ft / 0 m -31.53840˚ 159.07599˚ 793 nm 793 nm 67° / 58° Lord Howe Island

Altitude Profile

Advertisement - Login to hide

Weather


0- 5 10 15 20 25 30 35+ Temperature / ° C

Clouds and Precipitation
Forecast for 2018-05-24 12:00 UTC. Updated an hour ago

Ground ~20,000 ft ~40,000 ft Winds

YMML

Details ICAO YMML (MEL)
Name Melbourne Intl
Region Australia
Timezone Australia/Melbourne (UTC+10.0)
Stats Elevation 433 ft / 132 m (AMSL)
Location -37.665301° 144.836668°
Runways 2
Magnetic Variation 11.508° E

METAR

YMML 241200Z 20005KT 9999 SCT022 BKN038 12/10 Q1028 INTER 1200/1500 7000 -SHRA BKN012

Decode

TAF

TAF YMML 241115Z 2412/2518 20005KT 9999 -SHRA SCT015 BKN025 FM241700 VRB05KT 9999 FEW012 BKN020 FM250100 19007KT 9999 FEW030 FM251200 36008KT 9999 FEW030 INTER 2412/2418 7000 -SHRA BKN012

Decode

Departure Runways

ID Width Length Bearing (true) Bearing (mag) Surface Threshold Offset Overrun Length
09 148 ft / 45 m 7,494 ft / 2,284 m 94.01° 82.50° Asphalt 0 ft / 0 m 0 ft / 0 m
16 148 ft / 45 m 12,008 ft / 3,660 m 171.02° 159.51° Asphalt 98 ft / 30 m 0 ft / 0 m
27 148 ft / 45 m 7,494 ft / 2,284 m 274.00° 262.49° Asphalt 0 ft / 0 m 0 ft / 0 m
34 148 ft / 45 m 12,008 ft / 3,660 m 351.01° 339.50° Asphalt 98 ft / 30 m 0 ft / 0 m

YLHI

Details ICAO YLHI (LDH)
Name Lord Howe Island
Region Australia
Timezone Unknown (UTC+0.0)
Stats Elevation 16 ft / 5 m (AMSL)
Location -31.538405° 159.075986°
Runways 1
Magnetic Variation 14.064° E

METAR

YLHI 241200Z AUTO 21009KT 9999 // SCT029 19/14 Q1020

Decode

TAF

TAF YLHI 241156Z 2412/2512 20012KT 9999 -SHRA BKN030 FM242000 19014KT 9999 -SHRA SCT030 FM250000 19015G25KT 9999 -SHRA SCT030 FM250900 18014KT 9999 SCT035

Decode

Destination Runways

ID Width Length Bearing (true) Bearing (mag) Surface Threshold Offset Overrun Length
10 98 ft / 30 m 2,902 ft / 885 m 114.50° 100.44° Asphalt 0 ft / 0 m 194 ft / 59 m
28 98 ft / 30 m 2,902 ft / 885 m 294.50° 280.44° Asphalt 322 ft / 98 m 190 ft / 58 m

Popular Alternatives